sensor_id;sensor_type;location;lat;lon;timestamp;temperature;humidity
8459;DHT22;4266;48.816;9.154;2023-05-23T00:01:04;16.70;99.90
8459;DHT22;4266;48.816;9.154;2023-05-23T00:03:31;16.60;99.90
8459;DHT22;4266;48.816;9.154;2023-05-23T00:05:56;16.60;99.90
8459;DHT22;4266;48.816;9.154;2023-05-23T00:08:23;16.50;99.90
8459;DHT22;4266;48.816;9.154;2023-05-23T00:10:49;16.50;99.90
8459;DHT22;4266;48.816;9.154;2023-05-23T00:13:14;16.60;99.90
8459;DHT22;4266;48.816;9.154;2023-05-23T00:15:40;16.60;99.90
8459;DHT22;4266;48.816;9.154;2023-05-23T00:18:06;16.60;99.90
8459;DHT22;4266;48.816;9.154;2023-05-23T00:20:31;16.50;99.90
8459;DHT22;4266;48.816;9.154;2023-05-23T00:22:57;16.50;99.90
8459;DHT22;4266;48.816;9.154;2023-05-23T00:25:24;16.50;99.90
8459;DHT22;4266;48.816;9.154;2023-05-23T00:27:49;16.50;99.90
8459;DHT22;4266;48.816;9.154;2023-05-23T00:30:15;16.50;99.90
8459;DHT22;4266;48.816;9.154;2023-05-23T00:32:41;16.40;99.90
8459;DHT22;4266;48.816;9.154;2023-05-23T00:35:07;16.40;99.90
8459;DHT22;4266;48.816;9.154;2023-05-23T00:37:33;16.40;99.90
8459;DHT22;4266;48.816;9.154;2023-05-23T00:39:59;16.40;99.90
8459;DHT22;4266;48.816;9.154;2023-05-23T00:42:25;16.50;99.90
8459;DHT22;4266;48.816;9.154;2023-05-23T00:44:51;16.50;99.90
8459;DHT22;4266;48.816;9.154;2023-05-23T00:47:17;16.50;99.90
8459;DHT22;4266;48.816;9.154;2023-05-23T00:49:43;16.50;99.90
8459;DHT22;4266;48.816;9.154;2023-05-23T00:52:09;16.50;99.90
8459;DHT22;4266;48.816;9.154;2023-05-23T00:54:34;16.50;99.90
8459;DHT22;4266;48.816;9.154;2023-05-23T00:57:00;16.60;99.90
8459;DHT22;4266;48.816;9.154;2023-05-23T00:59:26;16.60;99.90
8459;DHT22;4266;48.816;9.154;2023-05-23T01:01:52;16.70;99.90
8459;DHT22;4266;48.816;9.154;2023-05-23T01:04:17;16.70;99.90
8459;DHT22;4266;48.816;9.154;2023-05-23T01:06:43;16.80;99.90
8459;DHT22;4266;48.816;9.154;2023-05-23T01:09:08;16.80;99.90
8459;DHT22;4266;48.816;9.154;2023-05-23T01:11:41;16.80;99.90
8459;DHT22;4266;48.816;9.154;2023-05-23T01:14:04;16.80;99.90
8459;DHT22;4266;48.816;9.154;2023-05-23T01:16:29;16.70;99.90
8459;DHT22;4266;48.816;9.154;2023-05-23T01:18:53;16.70;99.90
8459;DHT22;4266;48.816;9.154;2023-05-23T01:21:17;16.70;99.90
8459;DHT22;4266;48.816;9.154;2023-05-23T01:23:54;16.70;99.90
8459;DHT22;4266;48.816;9.154;2023-05-23T01:26:45;16.70;99.90
8459;DHT22;4266;48.816;9.154;2023-05-23T01:29:14;16.60;99.90
8459;DHT22;4266;48.816;9.154;2023-05-23T01:31:42;16.50;99.90
8459;DHT22;4266;48.816;9.154;2023-05-23T01:34:04;16.40;99.90
8459;DHT22;4266;48.816;9.154;2023-05-23T01:36:31;16.40;99.90
8459;DHT22;4266;48.816;9.154;2023-05-23T01:38:56;16.40;99.90
8459;DHT22;4266;48.816;9.154;2023-05-23T01:41:22;16.30;99.90
8459;DHT22;4266;48.816;9.154;2023-05-23T01:43:48;16.40;99.90
8459;DHT22;4266;48.816;9.154;2023-05-23T01:46:14;16.40;99.90
8459;DHT22;4266;48.816;9.154;2023-05-23T01:48:40;16.40;99.90
8459;DHT22;4266;48.816;9.154;2023-05-23T01:51:05;16.40;99.90
8459;DHT22;4266;48.816;9.154;2023-05-23T01:53:31;16.40;99.90
8459;DHT22;4266;48.816;9.154;2023-05-23T01:55:57;16.30;99.90
8459;DHT22;4266;48.816;9.154;2023-05-23T01:58:22;16.30;99.90
8459;DHT22;4266;48.816;9.154;2023-05-23T02:00:48;16.30;99.90
8459;DHT22;4266;48.816;9.154;2023-05-23T02:03:15;16.30;99.90
8459;DHT22;4266;48.816;9.154;2023-05-23T02:05:41;16.20;99.90
8459;DHT22;4266;48.816;9.154;2023-05-23T02:08:06;16.20;99.90
8459;DHT22;4266;48.816;9.154;2023-05-23T02:10:32;16.30;99.90
8459;DHT22;4266;48.816;9.154;2023-05-23T02:12:58;16.20;99.90
8459;DHT22;4266;48.816;9.154;2023-05-23T02:15:25;16.20;99.90
8459;DHT22;4266;48.816;9.154;2023-05-23T02:17:51;16.20;99.90
8459;DHT22;4266;48.816;9.154;2023-05-23T02:20:17;16.20;99.90
8459;DHT22;4266;48.816;9.154;2023-05-23T02:22:43;16.20;99.90
8459;DHT22;4266;48.816;9.154;2023-05-23T02:25:08;16.20;99.90
8459;DHT22;4266;48.816;9.154;2023-05-23T02:27:35;16.30;99.90
8459;DHT22;4266;48.816;9.154;2023-05-23T02:30:01;16.30;99.90
8459;DHT22;4266;48.816;9.154;2023-05-23T02:32:27;16.20;99.90
8459;DHT22;4266;48.816;9.154;2023-05-23T02:34:53;16.30;99.90
8459;DHT22;4266;48.816;9.154;2023-05-23T02:37:18;16.30;99.90
8459;DHT22;4266;48.816;9.154;2023-05-23T02:39:44;16.20;99.90
8459;DHT22;4266;48.816;9.154;2023-05-23T02:42:10;16.30;99.90
8459;DHT22;4266;48.816;9.154;2023-05-23T02:44:35;16.30;99.90
8459;DHT22;4266;48.816;9.154;2023-05-23T02:47:01;16.40;99.90
8459;DHT22;4266;48.816;9.154;2023-05-23T02:49:27;16.40;99.90
8459;DHT22;4266;48.816;9.154;2023-05-23T02:51:52;16.40;99.90
8459;DHT22;4266;48.816;9.154;2023-05-23T02:54:18;16.40;99.90
8459;DHT22;4266;48.816;9.154;2023-05-23T02:56:44;16.40;99.90
8459;DHT22;4266;48.816;9.154;2023-05-23T02:59:09;16.40;99.90
8459;DHT22;4266;48.816;9.154;2023-05-23T03:01:37;16.40;99.90
8459;DHT22;4266;48.816;9.154;2023-05-23T03:04:02;16.40;99.90
8459;DHT22;4266;48.816;9.154;2023-05-23T03:06:28;16.40;99.90
8459;DHT22;4266;48.816;9.154;2023-05-23T03:08:54;16.40;99.90
8459;DHT22;4266;48.816;9.154;2023-05-23T03:11:21;16.50;99.90
8459;DHT22;4266;48.816;9.154;2023-05-23T03:13:46;16.50;99.90
8459;DHT22;4266;48.816;9.154;2023-05-23T03:16:12;16.50;99.90
8459;DHT22;4266;48.816;9.154;2023-05-23T03:18:38;16.60;99.90
8459;DHT22;4266;48.816;9.154;2023-05-23T03:21:04;16.60;99.90
8459;DHT22;4266;48.816;9.154;2023-05-23T03:23:30;16.70;99.90
8459;DHT22;4266;48.816;9.154;2023-05-23T03:25:56;16.60;99.90
8459;DHT22;4266;48.816;9.154;2023-05-23T03:28:23;16.60;99.90
8459;DHT22;4266;48.816;9.154;2023-05-23T03:30:48;16.60;99.90
8459;DHT22;4266;48.816;9.154;2023-05-23T03:33:14;16.60;99.90
8459;DHT22;4266;48.816;9.154;2023-05-23T03:35:40;16.60;99.90
8459;DHT22;4266;48.816;9.154;2023-05-23T03:38:06;16.60;99.90
8459;DHT22;4266;48.816;9.154;2023-05-23T03:40:33;16.60;99.90
8459;DHT22;4266;48.816;9.154;2023-05-23T03:43:00;16.70;99.90
8459;DHT22;4266;48.816;9.154;2023-05-23T03:45:26;16.70;99.90
8459;DHT22;4266;48.816;9.154;2023-05-23T03:47:51;16.70;99.90
8459;DHT22;4266;48.816;9.154;2023-05-23T03:50:17;16.70;99.90
8459;DHT22;4266;48.816;9.154;2023-05-23T03:52:43;16.70;99.90
8459;DHT22;4266;48.816;9.154;2023-05-23T03:55:08;16.70;99.90
8459;DHT22;4266;48.816;9.154;2023-05-23T03:57:34;16.70;99.90
8459;DHT22;4266;48.816;9.154;2023-05-23T04:00:00;16.70;99.90
8459;DHT22;4266;48.816;9.154;2023-05-23T04:02:25;16.70;99.90
8459;DHT22;4266;48.816;9.154;2023-05-23T04:04:52;16.70;99.90
8459;DHT22;4266;48.816;9.154;2023-05-23T04:07:18;16.70;99.90
8459;DHT22;4266;48.816;9.154;2023-05-23T04:09:43;16.60;99.90
8459;DHT22;4266;48.816;9.154;2023-05-23T04:12:10;16.60;99.90
8459;DHT22;4266;48.816;9.154;2023-05-23T04:14:35;16.70;99.90
8459;DHT22;4266;48.816;9.154;2023-05-23T04:17:01;16.70;99.90
8459;DHT22;4266;48.816;9.154;2023-05-23T04:19:27;16.70;99.90
8459;DHT22;4266;48.816;9.154;2023-05-23T04:21:53;16.70;99.90
8459;DHT22;4266;48.816;9.154;2023-05-23T04:24:19;16.70;99.90
8459;DHT22;4266;48.816;9.154;2023-05-23T04:26:44;16.80;99.90
8459;DHT22;4266;48.816;9.154;2023-05-23T04:29:10;16.70;99.90
8459;DHT22;4266;48.816;9.154;2023-05-23T04:31:36;16.80;99.90
8459;DHT22;4266;48.816;9.154;2023-05-23T04:34:01;16.90;99.90
8459;DHT22;4266;48.816;9.154;2023-05-23T04:36:27;16.90;99.90
8459;DHT22;4266;48.816;9.154;2023-05-23T04:38:53;16.90;99.90
8459;DHT22;4266;48.816;9.154;2023-05-23T04:41:18;16.90;99.90
8459;DHT22;4266;48.816;9.154;2023-05-23T04:43:44;16.90;99.90
8459;DHT22;4266;48.816;9.154;2023-05-23T04:46:11;16.90;99.90
8459;DHT22;4266;48.816;9.154;2023-05-23T04:48:36;16.90;99.90
8459;DHT22;4266;48.816;9.154;2023-05-23T04:51:02;16.90;99.90
8459;DHT22;4266;48.816;9.154;2023-05-23T04:53:32;17.00;99.90
8459;DHT22;4266;48.816;9.154;2023-05-23T04:55:57;17.00;99.90
8459;DHT22;4266;48.816;9.154;2023-05-23T04:58:23;17.00;99.90
8459;DHT22;4266;48.816;9.154;2023-05-23T05:00:48;17.00;99.90
8459;DHT22;4266;48.816;9.154;2023-05-23T05:03:15;17.00;99.90
8459;DHT22;4266;48.816;9.154;2023-05-23T05:05:41;17.10;99.90
8459;DHT22;4266;48.816;9.154;2023-05-23T05:08:07;17.10;99.90
8459;DHT22;4266;48.816;9.154;2023-05-23T05:10:33;17.10;99.90
8459;DHT22;4266;48.816;9.154;2023-05-23T05:12:59;17.20;99.90
8459;DHT22;4266;48.816;9.154;2023-05-23T05:15:25;17.20;99.90
8459;DHT22;4266;48.816;9.154;2023-05-23T05:17:51;17.20;99.90
8459;DHT22;4266;48.816;9.154;2023-05-23T05:20:17;17.20;99.90
8459;DHT22;4266;48.816;9.154;2023-05-23T05:22:42;17.30;99.90
8459;DHT22;4266;48.816;9.154;2023-05-23T05:25:09;17.40;99.90
8459;DHT22;4266;48.816;9.154;2023-05-23T05:27:35;17.30;99.90
8459;DHT22;4266;48.816;9.154;2023-05-23T05:30:00;17.30;99.90
8459;DHT22;4266;48.816;9.154;2023-05-23T05:32:27;17.30;99.90
8459;DHT22;4266;48.816;9.154;2023-05-23T05:34:52;17.30;99.90
8459;DHT22;4266;48.816;9.154;2023-05-23T05:37:18;17.20;99.90
8459;DHT22;4266;48.816;9.154;2023-05-23T05:39:44;17.10;99.90
8459;DHT22;4266;48.816;9.154;2023-05-23T05:42:10;17.30;99.90
8459;DHT22;4266;48.816;9.154;2023-05-23T05:44:36;17.30;99.90
8459;DHT22;4266;48.816;9.154;2023-05-23T05:47:02;17.40;99.90
8459;DHT22;4266;48.816;9.154;2023-05-23T05:49:27;17.50;99.90
8459;DHT22;4266;48.816;9.154;2023-05-23T05:51:53;17.50;99.90
8459;DHT22;4266;48.816;9.154;2023-05-23T05:54:19;17.50;99.90
8459;DHT22;4266;48.816;9.154;2023-05-23T05:56:46;17.70;99.90
8459;DHT22;4266;48.816;9.154;2023-05-23T05:59:10;17.70;99.90
8459;DHT22;4266;48.816;9.154;2023-05-23T06:01:36;17.70;99.90
8459;DHT22;4266;48.816;9.154;2023-05-23T06:04:02;17.80;99.90
8459;DHT22;4266;48.816;9.154;2023-05-23T06:06:27;17.90;99.90
8459;DHT22;4266;48.816;9.154;2023-05-23T06:08:54;18.00;99.90
8459;DHT22;4266;48.816;9.154;2023-05-23T06:11:19;18.00;99.90
8459;DHT22;4266;48.816;9.154;2023-05-23T06:13:46;18.10;99.90
8459;DHT22;4266;48.816;9.154;2023-05-23T06:16:11;18.10;99.90
8459;DHT22;4266;48.816;9.154;2023-05-23T06:18:37;18.10;99.90
8459;DHT22;4266;48.816;9.154;2023-05-23T06:21:03;18.10;99.90
8459;DHT22;4266;48.816;9.154;2023-05-23T06:23:29;18.20;99.90
8459;DHT22;4266;48.816;9.154;2023-05-23T06:25:56;18.20;99.90
8459;DHT22;4266;48.816;9.154;2023-05-23T06:28:21;18.10;99.90
8459;DHT22;4266;48.816;9.154;2023-05-23T06:30:47;18.10;99.90
8459;DHT22;4266;48.816;9.154;2023-05-23T06:33:13;18.00;99.90
8459;DHT22;4266;48.816;9.154;2023-05-23T06:35:38;18.10;99.90
8459;DHT22;4266;48.816;9.154;2023-05-23T06:38:04;18.00;99.90
8459;DHT22;4266;48.816;9.154;2023-05-23T06:40:29;18.00;99.90
8459;DHT22;4266;48.816;9.154;2023-05-23T06:42:55;18.10;99.90
8459;DHT22;4266;48.816;9.154;2023-05-23T06:45:21;18.10;99.90
8459;DHT22;4266;48.816;9.154;2023-05-23T06:47:47;17.80;99.90
8459;DHT22;4266;48.816;9.154;2023-05-23T06:50:13;17.80;99.90
8459;DHT22;4266;48.816;9.154;2023-05-23T06:52:39;17.70;99.90
8459;DHT22;4266;48.816;9.154;2023-05-23T06:55:05;17.70;99.90
8459;DHT22;4266;48.816;9.154;2023-05-23T06:57:31;17.60;99.90
8459;DHT22;4266;48.816;9.154;2023-05-23T06:59:57;17.60;99.90
8459;DHT22;4266;48.816;9.154;2023-05-23T07:02:22;17.60;99.90
8459;DHT22;4266;48.816;9.154;2023-05-23T07:04:48;17.50;99.90
8459;DHT22;4266;48.816;9.154;2023-05-23T07:07:14;17.50;99.90
8459;DHT22;4266;48.816;9.154;2023-05-23T07:09:40;17.40;99.90
8459;DHT22;4266;48.816;9.154;2023-05-23T07:12:06;17.40;99.90
8459;DHT22;4266;48.816;9.154;2023-05-23T07:14:32;17.50;99.90
8459;DHT22;4266;48.816;9.154;2023-05-23T07:16:58;17.60;99.90
8459;DHT22;4266;48.816;9.154;2023-05-23T07:19:24;17.50;99.90
8459;DHT22;4266;48.816;9.154;2023-05-23T07:21:50;17.70;99.90
8459;DHT22;4266;48.816;9.154;2023-05-23T07:24:16;17.60;99.90
8459;DHT22;4266;48.816;9.154;2023-05-23T07:26:42;17.50;99.90
8459;DHT22;4266;48.816;9.154;2023-05-23T07:29:07;17.50;99.90
8459;DHT22;4266;48.816;9.154;2023-05-23T07:31:33;17.50;99.90
8459;DHT22;4266;48.816;9.154;2023-05-23T07:33:59;17.40;99.90
8459;DHT22;4266;48.816;9.154;2023-05-23T07:36:25;17.70;99.90
8459;DHT22;4266;48.816;9.154;2023-05-23T07:38:51;17.70;99.90
8459;DHT22;4266;48.816;9.154;2023-05-23T07:41:17;17.60;99.90
8459;DHT22;4266;48.816;9.154;2023-05-23T07:43:42;17.70;99.90
8459;DHT22;4266;48.816;9.154;2023-05-23T07:46:09;17.60;99.90
8459;DHT22;4266;48.816;9.154;2023-05-23T07:48:34;17.60;99.90
8459;DHT22;4266;48.816;9.154;2023-05-23T07:51:01;18.00;99.90
8459;DHT22;4266;48.816;9.154;2023-05-23T07:53:26;18.00;99.90
8459;DHT22;4266;48.816;9.154;2023-05-23T07:55:53;18.50;99.90
8459;DHT22;4266;48.816;9.154;2023-05-23T07:58:19;18.50;99.90
8459;DHT22;4266;48.816;9.154;2023-05-23T08:00:44;18.70;99.90
8459;DHT22;4266;48.816;9.154;2023-05-23T08:03:10;18.70;99.90
8459;DHT22;4266;48.816;9.154;2023-05-23T08:05:35;18.60;99.90
8459;DHT22;4266;48.816;9.154;2023-05-23T08:08:01;18.50;99.90
8459;DHT22;4266;48.816;9.154;2023-05-23T08:10:27;18.60;99.90
8459;DHT22;4266;48.816;9.154;2023-05-23T08:12:53;18.20;99.90
8459;DHT22;4266;48.816;9.154;2023-05-23T08:15:19;18.00;99.90
8459;DHT22;4266;48.816;9.154;2023-05-23T08:17:45;18.10;99.90
8459;DHT22;4266;48.816;9.154;2023-05-23T08:20:11;17.80;99.90
8459;DHT22;4266;48.816;9.154;2023-05-23T08:22:37;17.70;99.90
8459;DHT22;4266;48.816;9.154;2023-05-23T08:25:04;17.90;99.90
8459;DHT22;4266;48.816;9.154;2023-05-23T08:27:30;17.90;99.90
8459;DHT22;4266;48.816;9.154;2023-05-23T08:29:56;17.80;99.90
8459;DHT22;4266;48.816;9.154;2023-05-23T08:32:21;17.80;99.90
8459;DHT22;4266;48.816;9.154;2023-05-23T08:34:47;17.70;99.90
8459;DHT22;4266;48.816;9.154;2023-05-23T08:37:12;17.70;99.90
8459;DHT22;4266;48.816;9.154;2023-05-23T08:39:39;17.80;99.90
8459;DHT22;4266;48.816;9.154;2023-05-23T08:42:05;17.80;99.90
8459;DHT22;4266;48.816;9.154;2023-05-23T08:44:31;17.80;99.90
8459;DHT22;4266;48.816;9.154;2023-05-23T08:46:57;17.70;99.90
8459;DHT22;4266;48.816;9.154;2023-05-23T08:49:23;17.80;99.90
8459;DHT22;4266;48.816;9.154;2023-05-23T08:51:49;17.70;99.90
8459;DHT22;4266;48.816;9.154;2023-05-23T08:54:14;17.60;99.90
8459;DHT22;4266;48.816;9.154;2023-05-23T08:56:41;17.70;99.90
8459;DHT22;4266;48.816;9.154;2023-05-23T08:59:07;17.70;99.90
8459;DHT22;4266;48.816;9.154;2023-05-23T09:01:33;18.00;99.90
8459;DHT22;4266;48.816;9.154;2023-05-23T09:04:00;17.90;99.90
8459;DHT22;4266;48.816;9.154;2023-05-23T09:06:25;17.80;99.90
8459;DHT22;4266;48.816;9.154;2023-05-23T09:08:51;17.90;99.90
8459;DHT22;4266;48.816;9.154;2023-05-23T09:11:16;17.90;99.90
8459;DHT22;4266;48.816;9.154;2023-05-23T09:13:42;17.60;99.90
8459;DHT22;4266;48.816;9.154;2023-05-23T09:16:08;17.90;99.90
8459;DHT22;4266;48.816;9.154;2023-05-23T09:18:43;17.90;99.90
8459;DHT22;4266;48.816;9.154;2023-05-23T09:21:08;18.00;99.90
8459;DHT22;4266;48.816;9.154;2023-05-23T09:23:34;17.90;99.60
8459;DHT22;4266;48.816;9.154;2023-05-23T09:26:02;17.90;99.60
8459;DHT22;4266;48.816;9.154;2023-05-23T09:28:28;18.20;99.20
8459;DHT22;4266;48.816;9.154;2023-05-23T09:30:59;18.20;99.30
8459;DHT22;4266;48.816;9.154;2023-05-23T09:33:27;18.40;99.50
8459;DHT22;4266;48.816;9.154;2023-05-23T09:35:49;18.50;99.20
8459;DHT22;4266;48.816;9.154;2023-05-23T09:38:17;18.60;98.70
8459;DHT22;4266;48.816;9.154;2023-05-23T09:40:43;18.60;98.70
8459;DHT22;4266;48.816;9.154;2023-05-23T09:43:08;19.00;98.30
8459;DHT22;4266;48.816;9.154;2023-05-23T09:45:34;19.00;98.30
8459;DHT22;4266;48.816;9.154;2023-05-23T09:47:59;19.20;98.20
8459;DHT22;4266;48.816;9.154;2023-05-23T09:50:29;19.40;98.10
8459;DHT22;4266;48.816;9.154;2023-05-23T09:52:51;19.40;98.00
8459;DHT22;4266;48.816;9.154;2023-05-23T09:55:16;19.30;97.80
8459;DHT22;4266;48.816;9.154;2023-05-23T09:57:42;19.30;97.30
8459;DHT22;4266;48.816;9.154;2023-05-23T10:00:10;19.50;97.20
8459;DHT22;4266;48.816;9.154;2023-05-23T10:02:57;19.50;97.20
8459;DHT22;4266;48.816;9.154;2023-05-23T10:05:34;19.60;96.70
8459;DHT22;4266;48.816;9.154;2023-05-23T10:08:00;19.90;96.60
8459;DHT22;4266;48.816;9.154;2023-05-23T10:10:24;20.20;96.80
8459;DHT22;4266;48.816;9.154;2023-05-23T10:12:50;20.20;96.60
8459;DHT22;4266;48.816;9.154;2023-05-23T10:15:17;20.40;96.10
8459;DHT22;4266;48.816;9.154;2023-05-23T10:17:59;20.50;96.10
8459;DHT22;4266;48.816;9.154;2023-05-23T10:20:24;20.50;95.80
8459;DHT22;4266;48.816;9.154;2023-05-23T10:22:48;20.90;95.70
8459;DHT22;4266;48.816;9.154;2023-05-23T10:25:13;20.90;95.60
8459;DHT22;4266;48.816;9.154;2023-05-23T10:27:40;21.60;95.30
8459;DHT22;4266;48.816;9.154;2023-05-23T10:30:07;21.60;95.20
8459;DHT22;4266;48.816;9.154;2023-05-23T10:32:34;21.80;94.70
8459;DHT22;4266;48.816;9.154;2023-05-23T10:35:07;21.90;94.40
8459;DHT22;4266;48.816;9.154;2023-05-23T10:37:47;22.30;94.60
8459;DHT22;4266;48.816;9.154;2023-05-23T10:40:15;21.80;94.90
8459;DHT22;4266;48.816;9.154;2023-05-23T10:42:50;21.80;94.50
8459;DHT22;4266;48.816;9.154;2023-05-23T10:45:20;21.90;94.80
8459;DHT22;4266;48.816;9.154;2023-05-23T10:47:48;21.80;94.60
8459;DHT22;4266;48.816;9.154;2023-05-23T10:50:15;22.10;94.60
8459;DHT22;4266;48.816;9.154;2023-05-23T10:52:41;21.90;94.10
8459;DHT22;4266;48.816;9.154;2023-05-23T10:55:13;22.50;94.60
8459;DHT22;4266;48.816;9.154;2023-05-23T11:00:28;23.40;93.70
8459;DHT22;4266;48.816;9.154;2023-05-23T11:02:55;23.20;92.90
8459;DHT22;4266;48.816;9.154;2023-05-23T11:05:20;23.00;92.30
8459;DHT22;4266;48.816;9.154;2023-05-23T11:07:45;22.90;92.40
8459;DHT22;4266;48.816;9.154;2023-05-23T11:10:12;23.20;92.20
8459;DHT22;4266;48.816;9.154;2023-05-23T11:12:40;23.10;92.20
8459;DHT22;4266;48.816;9.154;2023-05-23T11:15:21;23.10;92.20
8459;DHT22;4266;48.816;9.154;2023-05-23T11:17:53;23.40;92.30
8459;DHT22;4266;48.816;9.154;2023-05-23T11:20:19;23.40;92.00
8459;DHT22;4266;48.816;9.154;2023-05-23T11:22:52;23.40;92.00
8459;DHT22;4266;48.816;9.154;2023-05-23T11:25:12;23.40;91.70
8459;DHT22;4266;48.816;9.154;2023-05-23T11:27:39;23.10;91.80
8459;DHT22;4266;48.816;9.154;2023-05-23T11:30:16;23.10;91.80
8459;DHT22;4266;48.816;9.154;2023-05-23T11:32:49;22.60;91.70
8459;DHT22;4266;48.816;9.154;2023-05-23T11:35:14;22.60;92.40
8459;DHT22;4266;48.816;9.154;2023-05-23T11:37:41;22.60;91.80
8459;DHT22;4266;48.816;9.154;2023-05-23T11:42:44;22.60;92.30
8459;DHT22;4266;48.816;9.154;2023-05-23T11:45:10;22.90;92.20
8459;DHT22;4266;48.816;9.154;2023-05-23T11:47:40;23.70;92.40
8459;DHT22;4266;48.816;9.154;2023-05-23T11:50:07;24.00;91.60
8459;DHT22;4266;48.816;9.154;2023-05-23T11:52:33;24.00;91.60
8459;DHT22;4266;48.816;9.154;2023-05-23T11:55:00;24.30;90.80
8459;DHT22;4266;48.816;9.154;2023-05-23T11:57:25;24.30;90.80
8459;DHT22;4266;48.816;9.154;2023-05-23T11:59:51;24.60;90.80
8459;DHT22;4266;48.816;9.154;2023-05-23T12:02:16;25.10;90.10
8459;DHT22;4266;48.816;9.154;2023-05-23T12:04:42;24.60;90.10
8459;DHT22;4266;48.816;9.154;2023-05-23T12:07:07;24.40;89.50
8459;DHT22;4266;48.816;9.154;2023-05-23T12:09:41;24.00;89.90
8459;DHT22;4266;48.816;9.154;2023-05-23T12:12:06;23.70;90.10
8459;DHT22;4266;48.816;9.154;2023-05-23T12:14:32;23.50;90.60
8459;DHT22;4266;48.816;9.154;2023-05-23T12:16:57;23.70;90.50
8459;DHT22;4266;48.816;9.154;2023-05-23T12:19:24;25.80;90.10
8459;DHT22;4266;48.816;9.154;2023-05-23T12:21:49;25.80;90.10
8459;DHT22;4266;48.816;9.154;2023-05-23T12:24:19;25.80;88.10
8459;DHT22;4266;48.816;9.154;2023-05-23T12:26:46;26.10;90.20
8459;DHT22;4266;48.816;9.154;2023-05-23T12:29:11;25.50;87.20
8459;DHT22;4266;48.816;9.154;2023-05-23T12:31:37;24.70;87.80
8459;DHT22;4266;48.816;9.154;2023-05-23T12:34:03;24.30;88.40
8459;DHT22;4266;48.816;9.154;2023-05-23T12:36:29;24.20;88.30
8459;DHT22;4266;48.816;9.154;2023-05-23T12:39:01;24.20;87.70
8459;DHT22;4266;48.816;9.154;2023-05-23T12:41:26;24.20;88.10
8459;DHT22;4266;48.816;9.154;2023-05-23T12:43:53;24.90;89.20
8459;DHT22;4266;48.816;9.154;2023-05-23T12:46:18;24.90;89.20
8459;DHT22;4266;48.816;9.154;2023-05-23T12:48:44;25.40;89.30
8459;DHT22;4266;48.816;9.154;2023-05-23T12:51:09;25.70;88.90
8459;DHT22;4266;48.816;9.154;2023-05-23T12:53:35;25.80;88.90
8459;DHT22;4266;48.816;9.154;2023-05-23T12:56:01;25.00;88.30
8459;DHT22;4266;48.816;9.154;2023-05-23T12:58:27;25.00;87.90
8459;DHT22;4266;48.816;9.154;2023-05-23T13:00:53;25.10;89.90
8459;DHT22;4266;48.816;9.154;2023-05-23T13:03:18;25.10;88.60
8459;DHT22;4266;48.816;9.154;2023-05-23T13:05:45;24.80;85.80
8459;DHT22;4266;48.816;9.154;2023-05-23T13:08:11;24.70;85.70
8459;DHT22;4266;48.816;9.154;2023-05-23T13:10:37;24.30;87.10
8459;DHT22;4266;48.816;9.154;2023-05-23T13:13:03;24.30;87.10
8459;DHT22;4266;48.816;9.154;2023-05-23T13:15:28;24.30;87.00
8459;DHT22;4266;48.816;9.154;2023-05-23T13:17:54;24.10;87.50
8459;DHT22;4266;48.816;9.154;2023-05-23T13:20:21;24.10;88.20
8459;DHT22;4266;48.816;9.154;2023-05-23T13:22:47;24.10;88.20
8459;DHT22;4266;48.816;9.154;2023-05-23T13:25:12;23.80;87.30
8459;DHT22;4266;48.816;9.154;2023-05-23T13:27:38;23.30;88.40
8459;DHT22;4266;48.816;9.154;2023-05-23T13:30:04;22.90;89.00
8459;DHT22;4266;48.816;9.154;2023-05-23T13:32:31;22.80;89.70
8459;DHT22;4266;48.816;9.154;2023-05-23T13:34:57;22.60;89.40
8459;DHT22;4266;48.816;9.154;2023-05-23T13:37:23;22.60;89.40
8459;DHT22;4266;48.816;9.154;2023-05-23T13:39:48;22.70;89.70
8459;DHT22;4266;48.816;9.154;2023-05-23T13:42:14;22.70;89.20
8459;DHT22;4266;48.816;9.154;2023-05-23T13:44:40;22.70;89.70
8459;DHT22;4266;48.816;9.154;2023-05-23T13:47:09;22.90;90.00
8459;DHT22;4266;48.816;9.154;2023-05-23T13:49:35;23.10;90.10
8459;DHT22;4266;48.816;9.154;2023-05-23T13:52:00;23.10;90.10
8459;DHT22;4266;48.816;9.154;2023-05-23T13:54:27;23.40;89.70
8459;DHT22;4266;48.816;9.154;2023-05-23T13:56:53;23.30;89.50
8459;DHT22;4266;48.816;9.154;2023-05-23T13:59:19;23.60;89.60
8459;DHT22;4266;48.816;9.154;2023-05-23T14:01:45;23.60;89.60
8459;DHT22;4266;48.816;9.154;2023-05-23T14:04:11;23.10;89.20
8459;DHT22;4266;48.816;9.154;2023-05-23T14:06:37;23.10;89.20
8459;DHT22;4266;48.816;9.154;2023-05-23T14:09:02;23.40;90.00
8459;DHT22;4266;48.816;9.154;2023-05-23T14:11:28;23.60;90.40
8459;DHT22;4266;48.816;9.154;2023-05-23T14:13:54;23.50;90.30
8459;DHT22;4266;48.816;9.154;2023-05-23T14:16:19;23.00;89.00
8459;DHT22;4266;48.816;9.154;2023-05-23T14:18:45;23.20;90.30
8459;DHT22;4266;48.816;9.154;2023-05-23T14:21:10;23.50;90.20
8459;DHT22;4266;48.816;9.154;2023-05-23T14:23:36;23.70;89.90
8459;DHT22;4266;48.816;9.154;2023-05-23T14:26:02;23.80;90.20
8459;DHT22;4266;48.816;9.154;2023-05-23T14:28:29;23.60;89.90
8459;DHT22;4266;48.816;9.154;2023-05-23T14:30:54;23.50;89.80
8459;DHT22;4266;48.816;9.154;2023-05-23T14:33:20;23.30;89.60
8459;DHT22;4266;48.816;9.154;2023-05-23T14:35:46;23.30;90.60
8459;DHT22;4266;48.816;9.154;2023-05-23T14:38:11;23.40;90.30
8459;DHT22;4266;48.816;9.154;2023-05-23T14:40:37;23.10;90.30
8459;DHT22;4266;48.816;9.154;2023-05-23T14:43:02;22.80;90.10
8459;DHT22;4266;48.816;9.154;2023-05-23T14:45:28;22.70;90.40
8459;DHT22;4266;48.816;9.154;2023-05-23T14:47:54;22.70;90.30
8459;DHT22;4266;48.816;9.154;2023-05-23T14:50:19;22.60;90.60
8459;DHT22;4266;48.816;9.154;2023-05-23T14:52:46;22.50;90.50
8459;DHT22;4266;48.816;9.154;2023-05-23T14:55:11;22.40;90.40
8459;DHT22;4266;48.816;9.154;2023-05-23T14:57:37;22.20;90.80
8459;DHT22;4266;48.816;9.154;2023-05-23T15:00:05;22.00;91.30
8459;DHT22;4266;48.816;9.154;2023-05-23T15:02:32;22.30;90.50
8459;DHT22;4266;48.816;9.154;2023-05-23T15:04:57;22.20;90.40
8459;DHT22;4266;48.816;9.154;2023-05-23T15:07:23;22.40;90.50
8459;DHT22;4266;48.816;9.154;2023-05-23T15:09:49;22.50;90.40
8459;DHT22;4266;48.816;9.154;2023-05-23T15:12:14;22.10;89.90
8459;DHT22;4266;48.816;9.154;2023-05-23T15:14:40;22.10;90.10
8459;DHT22;4266;48.816;9.154;2023-05-23T15:17:06;22.00;90.10
8459;DHT22;4266;48.816;9.154;2023-05-23T15:19:34;21.90;90.00
8459;DHT22;4266;48.816;9.154;2023-05-23T15:21:59;21.90;90.00
8459;DHT22;4266;48.816;9.154;2023-05-23T15:24:25;22.00;89.80
8459;DHT22;4266;48.816;9.154;2023-05-23T15:26:52;22.00;87.50
8459;DHT22;4266;48.816;9.154;2023-05-23T15:29:17;22.00;87.40
8459;DHT22;4266;48.816;9.154;2023-05-23T15:31:43;21.80;88.40
8459;DHT22;4266;48.816;9.154;2023-05-23T15:34:09;21.80;89.30
8459;DHT22;4266;48.816;9.154;2023-05-23T15:36:34;21.70;89.90
8459;DHT22;4266;48.816;9.154;2023-05-23T15:39:00;21.80;90.10
8459;DHT22;4266;48.816;9.154;2023-05-23T15:41:25;21.90;90.00
8459;DHT22;4266;48.816;9.154;2023-05-23T15:43:51;21.70;90.10
8459;DHT22;4266;48.816;9.154;2023-05-23T15:46:17;21.70;90.10
8459;DHT22;4266;48.816;9.154;2023-05-23T15:48:42;21.70;90.00
8459;DHT22;4266;48.816;9.154;2023-05-23T15:51:08;21.70;90.00
8459;DHT22;4266;48.816;9.154;2023-05-23T15:53:34;21.50;90.00
8459;DHT22;4266;48.816;9.154;2023-05-23T15:55:59;21.30;90.00
8459;DHT22;4266;48.816;9.154;2023-05-23T15:58:25;21.30;90.40
8459;DHT22;4266;48.816;9.154;2023-05-23T16:00:51;21.10;90.20